Ride Results

High Society te Challenge (12-11-2011)
Ride distance: 80.0 km

Outcomes - High Society te Challenge (12-11-2011)
Division No. of Entries Retired / DNE Completed Withdrawn Ineligible V/O Percentage Completed
HW 11 - 9 - - 2 81.82%
MW 24 - 17 1 1 5 70.83%
LW 14 - 13 - - 1 92.86%
JN 15 - 12 - - 3 80.00%
Totals 64 - 51 1 1 11 79.69%
Results - High Society te Challenge (12-11-2011)
No. Rider Horse Place Time Leg Speeds Total
Km/Hr
H/R bpm
Heavyweight
121 Sean Field Jaffa 1 (BC) 6:57:00 11.3, 11.7, 11.4 11.51 34, 45, 47, 45 (Avg:45)
48 Ken Gordon Cameo Favorita 2 6:59:00 11.8, 11.6, 10.7 11.46 30, 51, 46, 46 (Avg:47)
83 Michael Combe Nasr 3 7:20:00 10.7, 11.2, 10.6 10.91 40, 46, 45, 44 (Avg:45)
103 Anthony Wolgast Esau 4 7:29:00 10.5, 10.5, 11.0 10.69 38, 50, 49, 48 (Avg:49)
118 Greg Garred Shannonwood Sub 5 7:42:00 11.6, 10.3, 9.0 10.39 40, 40, 44, 49 (Avg:44)
45 Stephen Brown Rebel 6 7:53:00 10.7, 10.3, 9.0 10.15 41, 47, 52, 56 (Avg:51)
91 Dick Collyer Lion Hunter 7 8:00:00 10.7, 9.5, 9.5 10.00 32, 40, 42, 40 (Avg:40)
94 Jillian Crowley Countess Crysda 7 8:00:00 10.7, 9.5, 9.6 10.00 37, 43, 44, 48 (Avg:45)
120 Allyson Taylor Caleskhan Kasmeer 9 8:09:00 10.5, 9.4, 9.3 9.82 36, 38, 39, 42 (Avg:39)
115 Gregg Fields Dunwingeri Aquila Lame L2 0:00:00 11.9, 11.8 - 37, 48, 50 (Avg:49)
80 Phillip Strahan Saxon of Bedain Lame L2 0:00:00 9.6, 9.8 - 41, 51, 58 (Avg:54)
Middleweight
102 Nick Riley Bellarine Passiona 1 (BC) 5:18:00 15.3, 14.7, 15.1 15.09 39, 54, 54, 55 (Avg:54)
51 Billie Barron Virgil 2 7:00:00 11.8, 11.5, 10.7 11.43 33, 44, 42, 40 (Avg:42)
84 Bridget Nottle Justine te 3 7:32:00 9.8, 10.7, 11.7 10.62 36, 48, 52, 47 (Avg:49)
110 Donna Pearce Windhaven Hussein 3 7:32:00 11.2, 11.1, 9.2 10.62 32, 39, 45, 46 (Avg:43)
127 Danielle Cullen Mt Eerwah Silver Arafina 5 7:38:00 11.1, 10.3, 9.8 10.48 32, 36, 39, 42 (Avg:39)
73r Ron Haigh Ovation Te 6 7:53:00 10.9, 9.9, 9.3 10.15 35, 45, 45, 45 (Avg:45)
93 Rosemary Hull Jayhal Augusta 6 7:53:00 10.7, 10.3, 9.0 10.15 35, 46, 49, 50 (Avg:48)
79r Yvonne Hain Kie-Al Sirhan 8 8:06:00 11.5, 9.5, 8.5 9.88 31, 41, 40, 39 (Avg:40)
116 Michael Taylor Breathe 9 8:08:00 10.9, 9.2, 9.2 9.84 37, 46, 47, 50 (Avg:47)
96 Adrian Brickley Cromwell 10 8:09:00 10.5, 9.4, 9.3 9.82 37, 45, 43, 45 (Avg:44)
125 Fiona Anderson Zara Farm Query 11 8:43:00 10.6, 9.2, 7.5 9.18 39, 45, 46, 51 (Avg:47)
81 Jenny Noffke Sultan 11 8:43:00 11.1, 8.8, 7.5 9.18 37, 49, 50, 58 (Avg:52)
82 Kylie Reid Waralea Kyam 11 8:43:00 10.6, 9.2, 7.5 9.18 43, 43, 51, 47 (Avg:47)
72r Bruce Seaward Tahleah 11 8:43:00 10.6, 9.2, 7.5 9.18 36, 42, 41, 40 (Avg:41)
106 Hannah Houlden Dream Dancer te 15 8:54:00 9.5, 8.4, 9.1 8.99 36, 42, 46, 48 (Avg:45)
7 Debra McQueen Impulsive te 15 8:54:00 9.5, 8.4, 9.1 8.99 36, 43, 47, 47 (Avg:45)
100 Pierre DeWit Veronica te 17 8:58:00 9.0, 8.8, 8.9 8.92 40, 44, 45, 46 (Avg:45)
97 Fiona Fenech White Knight Lame L3 0:00:00 11.2, 10.4, 10.1 - 36, 42, 42, 41 (Avg:41)
111 Akhmed Pshunov Anglesea Tasman Heart Rate L3 0:00:00 10.9, 9.2, 9.2 - 36, 41, 52, 64 (Avg:52)
78r Jackie Swan Shantele Lame L3 0:00:00 11.1, 9.7, 7.2 - 39, 43, 44, 47 (Avg:44)
128 Casey Risson Millcreek Madrigal Heart Rate L2 0:00:00 11.8, 10.6 - 31, 47, 68 (Avg:57)
16 Jessica Gall Sultan Gall or injury L1 0:00:00 9.9 - 43, 46 (Avg:46)
122 Sarah Love Fun 4 Us Disqualified L1 0:00:00 14.5 - 42, 55 (Avg:55)
70 Kerrie McAuliffe Chatsworth Oscar Widthdrawn L1 0:00:00 - - 38, 45 (Avg:45)
Lightweight
74r Natashja Burton Taj Miranda 1 (BC) 5:20:00 14.6, 15.5, 14.8 15.00 42, 47, 47, 49 (Avg:47)
75r Sonya Ryan Kholonial Amigo 2 6:53:00 13.0, 10.5, 11.4 11.62 35, 43, 47, 54 (Avg:48)
49 Angie Clark Cameo Bucephalus 3 6:59:00 11.8, 11.6, 10.7 11.46 44, 48, 46, 47 (Avg:47)
46 Claire McManus Al Dhahab Hadiyyah 3 6:59:00 11.8, 11.5, 10.8 11.46 40, 43, 46, 42 (Avg:43)
112 Kate Appleby Bashan Nikodemus 5 7:29:00 10.5, 10.5, 11.0 10.69 42, 46, 45, 46 (Avg:45)
109 Janelle Weise BJ 6 7:32:00 11.2, 11.1, 9.2 10.62 36, 45, 51, 44 (Avg:46)
44 Sean Crew Agape SamuElla Australis 7 7:38:00 11.1, 10.3, 9.8 10.48 32, 38, 41, 43 (Avg:40)
124 Carla Jones Mt Eerwah Bay Cavalier 7 7:38:00 11.1, 10.3, 9.8 10.48 33, 46, 45, 46 (Avg:45)
117 Cathy Herve Hilbrae Maxine 9 7:42:00 11.6, 10.3, 9.0 10.39 41, 41, 42, 46 (Avg:43)
132 Amanda Phillips Sasam 10 7:47:00 10.2, 9.6, 11.4 10.28 36, 41, 54, 43 (Avg:46)
104 Amanda Doyle Rose Gum Markarah 11 8:08:00 10.9, 9.2, 9.2 9.84 42, 55, 56, 58 (Avg:56)
108 Angela Hawks Cameo Arpeggio 12 8:09:00 9.7, 9.9, 9.7 9.82 38, 45, 44, 48 (Avg:45)
90 Fabre Alisone Archer te 13 8:58:00 9.0, 8.8, 8.9 8.92 43, 46, 47, 47 (Avg:46)
114 Erin Krahnen Rodborough Bey Abdul Metabolics non-invasive L2 0:00:00 15.1, 14.6 - 35, 43, 55 (Avg:49)
Junior
77r Sarah Huddleston Reece 1 6:54:00 12.5, 11.2, 10.8 11.59 38, 51, 54, 59 (Avg:54)
101 Natasha Willemse Jazz Rah Tamin 2 (BC) 7:24:00 11.8, 10.2, 10.3 10.81 36, 43, 42, 35 (Avg:40)
89 Jessica Terry Aloha Farina 3 7:47:00 10.2, 9.6, 11.4 10.28 44, 39, 44, 45 (Avg:42)
95 Lizzy Cleland Luciana 4 8:00:00 10.7, 9.5, 9.6 10.00 39, 44, 45, 45 (Avg:44)
98 Rhiannon Corney Bonnie Downs Samir 5 8:09:00 10.5, 9.4, 9.3 9.82 42, 50, 51, 50 (Avg:50)
85r Jess Dakin Bashan Vashti 6 8:23:00 10.3, 9.3, 8.7 9.54 40, 42, 49, 48 (Avg:46)
123 Brooke Marshall Picnic Park Star Struck 6 8:23:00 10.3, 13.6, 6.0 9.54 40, 51, 51, 49 (Avg:50)
130 Matilda Hose Without A Doubt 8 8:45:00 8.5, 9.6, 9.3 9.14 34, 48, 49, 55 (Avg:50)
107 Scarlet McQueen Charlotte te 9 8:54:00 9.5, 8.4, 9.1 8.99 36, 42, 45, 47 (Avg:44)
113 Samantha Brooker Commanche Moon te 10 8:58:00 9.0, 8.8, 8.9 8.92 32, 41, 43, 43 (Avg:42)
119 Sharn Brooker White Linen te 10 8:58:00 9.0, 8.8, 8.9 8.92 36, 52, 49, 48 (Avg:49)
129 Jess Fuhlbohm Deep Forest Contest 12 9:20:00 8.5, 9.6, 7.3 8.57 35, 42, 46, 50 (Avg:46)
50 Megan Stehouwer Lanky Wog Lame L3 0:00:00 11.2, 10.4, 13.6 - 40, 48, 43, 45 (Avg:45)
105 Jade Vergis Carnarvon Kasserine Magic Lame L2 0:00:00 15.2, 14.8 - 36, 42, 41 (Avg:41)
76r David Anderson Jnr Everon Park Calect Heart Rate L1 0:00:00 11.9 - 38, 66 (Avg:66)